ESMK/KID METAR and TAF weather

Enter ICAO airport designator
Station Type Date Time Source
ESMK METAR 2024/04/18 07:20 UTC NOAA

ESMK 180720Z 35005KT 320V030 9999 -DZ SCT024 BKN040 05/02 Q1013


Station Type Date Time Source
ESMK Decoded METAR 2024/04/18 07:20 UTC NOAA

Kristianstad / Everod, Sweden (ESMK) 55-55N 014-05E
Apr 18, 2024 - 03:20 AM EDT / 2024.04.18 0720 UTC
Wind: from the N (350 degrees) at 6 MPH (5 KT) (direction variable):0
Visibility: greater than 7 mile(s):0
Sky conditions: mostly cloudy
Weather: light drizzle
Temperature: 41 F (5 C)
Dew Point: 35 F (2 C)
Relative Humidity: 80%
Pressure (altimeter): 29.91 in. Hg (1013 hPa)
ob: ESMK 180720Z 35005KT 320V030 9999 -DZ SCT024 BKN040 05/02 Q1013
cycle: 7

Station Type Date Time Source
ESMK TAF 2020/07/19 09:57 UTC NOAA